Time;durP1;ratioP1;P1;durP2;ratioP2;P2;SDS_P1;SDS_P2;PMS_P1;PMS_P2;Temp;Humidity;BMP_temperature;BMP_pressure;BME280_temperature;BME280_humidity;BME280_pressure;Samples;Min_cycle;Max_cycle;Signal;HPM_P1;HPM_P2
2021/04/24 00:00:29;;;;;;;8.30;4.95;;;8.60;74.00;;;;;;5017394;28;20071;-84
2021/04/24 00:02:54;;;;;;;8.70;5.05;;;8.60;74.20;;;;;;5052568;28;20032;-85
2021/04/24 00:05:26;;;;;;;8.00;4.75;;;8.60;74.30;;;;;;5051726;28;20024;-84
2021/04/24 00:08:03;;;;;;;8.90;5.20;;;8.50;74.40;;;;;;5049204;28;20111;-84
2021/04/24 00:10:31;;;;;;;9.18;6.10;;;8.40;74.80;;;;;;5053512;28;20027;-84
2021/04/24 00:12:57;;;;;;;10.82;6.63;;;8.20;75.10;;;;;;5051447;28;20069;-84
2021/04/24 00:15:23;;;;;;;10.13;5.40;;;8.20;75.70;;;;;;5049088;28;20021;-83
2021/04/24 00:17:49;;;;;;;13.18;6.82;;;8.10;76.10;;;;;;5052261;28;20024;-85
2021/04/24 00:20:17;;;;;;;10.25;6.28;;;7.90;76.80;;;;;;5083297;28;20170;-85
2021/04/24 00:22:43;;;;;;;11.50;6.75;;;7.90;77.40;;;;;;5084297;28;20016;-84
2021/04/24 00:25:10;;;;;;;9.77;6.45;;;7.90;77.60;;;;;;5090261;28;20099;-85
2021/04/24 00:27:36;;;;;;;7.93;5.13;;;7.80;78.00;;;;;;5090222;28;20388;-84
2021/04/24 00:30:04;;;;;;;9.60;6.43;;;7.70;77.90;;;;;;5088100;28;20493;-84
2021/04/24 00:32:30;;;;;;;9.13;5.53;;;7.70;78.30;;;;;;5088060;28;20021;-84
2021/04/24 00:34:55;;;;;;;9.13;5.85;;;7.60;78.60;;;;;;5088762;28;20069;-84
2021/04/24 00:37:21;;;;;;;8.07;4.97;;;7.60;78.80;;;;;;5092031;28;20016;-85
2021/04/24 00:39:46;;;;;;;10.82;6.13;;;7.60;78.60;;;;;;5088347;28;20031;-85
2021/04/24 00:42:12;;;;;;;10.57;6.93;;;7.60;78.50;;;;;;5094197;28;20387;-85
2021/04/24 00:44:45;;;;;;;10.73;6.13;;;7.70;79.00;;;;;;5095912;28;20532;-85
2021/04/24 00:47:11;;;;;;;11.32;6.63;;;7.70;79.30;;;;;;5092130;28;20055;-85
2021/04/24 00:49:36;;;;;;;8.90;5.53;;;7.70;79.50;;;;;;5090342;28;20048;-84
2021/04/24 00:52:02;;;;;;;7.43;4.40;;;7.70;79.40;;;;;;5094059;28;20475;-84
2021/04/24 00:54:28;;;;;;;7.45;4.57;;;7.80;79.20;;;;;;5093152;28;20020;-84
2021/04/24 00:56:53;;;;;;;7.18;4.72;;;7.70;79.00;;;;;;5084695;28;20024;-84
2021/04/24 00:59:19;;;;;;;7.80;4.65;;;7.60;78.90;;;;;;5092224;28;20419;-85
2021/04/24 01:01:44;;;;;;;8.65;5.30;;;7.60;79.00;;;;;;5085345;28;20106;-85
2021/04/24 01:04:10;;;;;;;8.13;5.22;;;7.60;79.30;;;;;;5094343;28;20069;-84
2021/04/24 01:06:35;;;;;;;8.98;5.28;;;7.50;79.40;;;;;;5092633;28;20028;-84
2021/04/24 01:09:02;;;;;;;12.77;6.43;;;7.40;79.50;;;;;;5094490;28;20035;-84
2021/04/24 01:11:28;;;;;;;10.32;6.03;;;7.40;80.20;;;;;;5095108;28;20096;-85
2021/04/24 01:13:53;;;;;;;8.48;5.60;;;7.30;80.40;;;;;;5083253;28;20107;-85
2021/04/24 01:16:19;;;;;;;13.30;6.38;;;7.30;80.40;;;;;;5091588;28;20028;-84
2021/04/24 01:18:45;;;;;;;13.20;5.40;;;7.20;80.60;;;;;;5080865;28;20059;-84
2021/04/24 01:21:11;;;;;;;8.02;5.45;;;7.20;80.60;;;;;;5055711;28;20078;-85
2021/04/24 01:23:37;;;;;;;11.90;6.65;;;7.20;80.50;;;;;;5050110;28;20029;-84
2021/04/24 01:26:03;;;;;;;7.93;5.47;;;7.20;80.80;;;;;;5074395;28;20021;-84
2021/04/24 01:28:30;;;;;;;9.45;5.97;;;7.20;80.90;;;;;;5074822;28;20060;-85
2021/04/24 01:30:55;;;;;;;10.82;6.45;;;7.10;81.00;;;;;;5069937;28;20461;-84
2021/04/24 01:33:21;;;;;;;10.30;6.45;;;7.00;81.30;;;;;;5055011;28;20591;-84
2021/04/24 01:35:47;;;;;;;9.38;6.10;;;7.00;81.80;;;;;;5054567;28;20025;-84
2021/04/24 01:38:13;;;;;;;11.38;6.03;;;7.00;81.80;;;;;;5049936;28;20419;-85
2021/04/24 01:40:39;;;;;;;11.43;6.63;;;7.00;82.00;;;;;;5052690;28;20120;-84
2021/04/24 01:43:06;;;;;;;11.38;6.75;;;6.90;82.40;;;;;;5053375;28;20028;-85
2021/04/24 01:45:33;;;;;;;9.50;5.60;;;6.90;82.60;;;;;;5053349;28;20028;-85
2021/04/24 01:47:59;;;;;;;11.00;5.43;;;7.00;82.40;;;;;;5053972;28;20067;-84
2021/04/24 01:50:29;;;;;;;8.23;5.85;;;7.00;82.20;;;;;;5078325;28;20020;-87
2021/04/24 01:52:57;;;;;;;7.00;4.78;;;7.10;82.10;;;;;;5053437;28;20042;-84
2021/04/24 01:55:27;;;;;;;8.60;4.80;;;7.10;82.00;;;;;;5054805;28;20066;-84
2021/04/24 01:57:56;;;;;;;11.30;4.80;;;7.00;82.00;;;;;;5048436;28;20055;-84
2021/04/24 02:00:28;;;;;;;8.18;4.72;;;7.00;82.10;;;;;;5052114;28;20154;-84
2021/04/24 02:02:56;;;;;;;9.65;5.35;;;7.00;82.00;;;;;;5054781;28;20479;-84
2021/04/24 02:05:22;;;;;;;8.73;4.85;;;7.00;82.10;;;;;;5071505;28;20024;-84
2021/04/24 02:08:15;;;;;;;8.60;5.43;;;7.00;82.10;;;;;;5055023;28;20016;-84
2021/04/24 02:10:43;;;;;;;9.55;5.47;;;7.00;82.10;;;;;;5048883;28;20039;-83
2021/04/24 02:13:12;;;;;;;10.18;6.07;;;6.80;82.70;;;;;;5053522;28;20023;-84
2021/04/24 02:15:38;;;;;;;13.57;7.68;;;6.80;83.10;;;;;;5068587;28;20036;-83
2021/04/24 02:18:04;;;;;;;11.68;6.72;;;6.70;83.50;;;;;;5053902;28;20016;-84
2021/04/24 02:20:31;;;;;;;12.25;7.53;;;6.70;83.70;;;;;;5088788;28;20102;-84
2021/04/24 02:22:57;;;;;;;11.90;6.03;;;6.60;84.40;;;;;;5091618;28;20016;-84
2021/04/24 02:25:22;;;;;;;15.48;7.65;;;6.60;84.60;;;;;;5091121;28;20016;-84
2021/04/24 02:27:48;;;;;;;14.43;7.50;;;6.50;85.00;;;;;;5093655;28;20028;-83
2021/04/24 02:30:17;;;;;;;10.45;6.28;;;6.50;85.60;;;;;;5089292;28;20042;-84
2021/04/24 02:32:43;;;;;;;10.70;6.20;;;6.50;85.70;;;;;;5088660;28;20020;-84
2021/04/24 02:35:11;;;;;;;10.30;5.80;;;6.50;85.70;;;;;;5090697;28;20012;-84
2021/04/24 02:37:37;;;;;;;9.32;5.28;;;6.50;85.60;;;;;;5089275;28;20518;-84
2021/04/24 02:40:09;;;;;;;10.32;5.90;;;6.50;85.50;;;;;;5091255;28;20024;-85
2021/04/24 02:42:34;;;;;;;8.77;5.75;;;6.40;85.50;;;;;;5091089;28;20391;-84
2021/04/24 02:45:05;;;;;;;11.07;6.28;;;6.50;86.00;;;;;;5091994;28;20039;-84
2021/04/24 02:47:31;;;;;;;10.15;6.32;;;6.40;85.90;;;;;;5082991;28;20021;-84
2021/04/24 02:49:57;;;;;;;9.57;6.65;;;6.40;86.00;;;;;;5088916;28;20024;-85
2021/04/24 02:52:22;;;;;;;8.45;5.18;;;6.40;86.20;;;;;;5090068;28;20024;-84
2021/04/24 02:54:48;;;;;;;9.43;6.15;;;6.40;86.00;;;;;;5086138;28;20154;-85
2021/04/24 02:57:13;;;;;;;9.73;6.03;;;6.40;86.50;;;;;;5089146;28;20061;-84
2021/04/24 02:59:39;;;;;;;8.75;5.78;;;6.30;86.60;;;;;;5090938;28;20038;-84
2021/04/24 03:02:05;;;;;;;9.35;6.15;;;6.30;86.60;;;;;;5087758;28;20031;-84
2021/04/24 03:04:30;;;;;;;9.73;6.35;;;6.30;86.60;;;;;;5089394;28;20020;-85
2021/04/24 03:06:56;;;;;;;11.18;6.10;;;6.30;86.50;;;;;;5085916;28;20025;-85
2021/04/24 03:09:21;;;;;;;10.38;6.72;;;6.20;86.60;;;;;;5091695;28;20020;-84
2021/04/24 03:11:47;;;;;;;11.85;6.22;;;6.30;86.50;;;;;;5091258;28;20024;-85
2021/04/24 03:14:13;;;;;;;12.77;6.75;;;6.30;86.40;;;;;;5089269;28;20023;-85
2021/04/24 03:16:39;;;;;;;11.43;5.80;;;6.30;86.40;;;;;;5089938;28;20020;-84
2021/04/24 03:19:06;;;;;;;9.75;5.95;;;6.20;86.40;;;;;;5079642;28;20040;-85
2021/04/24 03:21:32;;;;;;;8.85;5.22;;;6.20;86.40;;;;;;5049651;28;20028;-85
2021/04/24 03:23:58;;;;;;;10.20;6.18;;;6.10;86.30;;;;;;5069242;28;20374;-85
2021/04/24 03:26:24;;;;;;;12.45;8.23;;;6.10;86.50;;;;;;5054114;28;20115;-84
2021/04/24 03:28:53;;;;;;;10.85;6.13;;;6.10;86.80;;;;;;5054173;28;20032;-84
2021/04/24 03:31:19;;;;;;;12.10;5.93;;;6.10;86.80;;;;;;5069841;28;20025;-84
2021/04/24 03:33:45;;;;;;;11.40;6.53;;;6.00;86.70;;;;;;5070165;28;20017;-84
2021/04/24 03:36:11;;;;;;;9.23;6.57;;;6.00;87.80;;;;;;5066129;28;20028;-84
2021/04/24 03:38:37;;;;;;;8.60;5.65;;;6.00;87.20;;;;;;5053089;28;20020;-85
2021/04/24 03:41:07;;;;;;;8.55;5.15;;;6.10;87.20;;;;;;5052607;28;20503;-84
2021/04/24 03:43:32;;;;;;;;;;;6.10;87.10;;;;;;5054373;28;20039;-85
2021/04/24 03:45:58;;;;;;;9.40;5.13;;;6.10;86.70;;;;;;5072197;28;19909;-84
2021/04/24 03:48:24;;;;;;;7.95;5.03;;;6.00;86.90;;;;;;5041009;28;20020;-84
2021/04/24 03:50:49;;;;;;;10.52;6.25;;;6.10;86.90;;;;;;5066863;28;20033;-85
2021/04/24 03:53:15;;;;;;;10.82;5.90;;;6.00;86.80;;;;;;5061041;28;20024;-85
2021/04/24 03:55:41;;;;;;;10.85;6.80;;;6.00;87.00;;;;;;5041775;28;20439;-85
2021/04/24 03:58:06;;;;;;;12.88;7.35;;;6.00;87.20;;;;;;5066460;28;20017;-85
2021/04/24 04:00:32;;;;;;;11.07;6.43;;;6.00;87.30;;;;;;5050151;28;20082;-84
2021/04/24 04:03:00;;;;;;;12.63;6.45;;;6.00;87.60;;;;;;5050687;28;20055;-84
2021/04/24 04:05:28;;;;;;;11.43;6.65;;;5.90;87.70;;;;;;5051400;28;20021;-85
2021/04/24 04:07:55;;;;;;;9.20;6.10;;;5.90;87.80;;;;;;5071037;28;20029;-85
2021/04/24 04:10:21;;;;;;;9.60;5.77;;;5.90;87.90;;;;;;5052599;28;20020;-84
2021/04/24 04:12:47;;;;;;;9.73;5.70;;;5.90;88.60;;;;;;5064763;28;20012;-85
2021/04/24 04:15:14;;;;;;;9.02;6.03;;;5.90;88.00;;;;;;5041489;28;20013;-85
2021/04/24 04:17:40;;;;;;;10.68;6.30;;;5.90;88.10;;;;;;5062895;28;20079;-85
2021/04/24 04:20:08;;;;;;;11.73;6.43;;;5.80;88.20;;;;;;5081122;28;20428;-85
2021/04/24 04:22:35;;;;;;;10.65;6.75;;;5.80;88.30;;;;;;5079526;28;20029;-85
2021/04/24 04:25:01;;;;;;;11.02;6.90;;;5.70;88.70;;;;;;5085611;28;20036;-85
2021/04/24 04:27:27;;;;;;;10.88;6.28;;;5.70;89.00;;;;;;5089145;28;20476;-84
2021/04/24 04:29:53;;;;;;;11.85;6.13;;;5.60;88.90;;;;;;5088872;28;20028;-85
2021/04/24 04:32:19;;;;;;;11.35;6.38;;;5.70;89.00;;;;;;5082697;28;20028;-85
2021/04/24 04:34:44;;;;;;;12.18;5.75;;;5.70;88.90;;;;;;5085816;28;20021;-85
2021/04/24 04:37:10;;;;;;;9.25;5.70;;;5.70;88.90;;;;;;5089263;28;20446;-85
2021/04/24 04:39:36;;;;;;;14.07;6.78;;;5.70;88.70;;;;;;5081840;28;20025;-85
2021/04/24 04:42:01;;;;;;;10.40;6.22;;;5.70;88.80;;;;;;5085794;28;20052;-84
2021/04/24 04:44:27;;;;;;;13.50;7.50;;;5.70;88.80;;;;;;5082969;28;20141;-85
2021/04/24 04:46:52;;;;;;;10.48;6.82;;;5.70;88.90;;;;;;5085041;28;20081;-85
2021/04/24 04:49:18;;;;;;;15.52;7.25;;;5.60;89.10;;;;;;5080509;28;20031;-85
2021/04/24 04:51:44;;;;;;;11.65;6.15;;;5.60;89.30;;;;;;5085365;28;20055;-84
2021/04/24 04:54:09;;;;;;;11.77;6.80;;;5.60;89.40;;;;;;5089161;28;20024;-85
2021/04/24 04:56:35;;;;;;;12.25;6.90;;;5.70;89.60;;;;;;5086823;28;20044;-85
2021/04/24 04:59:00;;;;;;;12.98;6.97;;;5.60;89.60;;;;;;5088613;28;20411;-85
2021/04/24 05:01:26;;;;;;;11.27;6.70;;;5.60;89.90;;;;;;5088289;28;20024;-84
2021/04/24 05:03:51;;;;;;;12.00;6.85;;;5.60;90.00;;;;;;5073212;28;20424;-85
2021/04/24 05:06:17;;;;;;;9.43;5.88;;;5.60;90.00;;;;;;5080858;28;20494;-85
2021/04/24 05:08:42;;;;;;;10.82;6.38;;;5.60;90.00;;;;;;5083087;28;20146;-85
2021/04/24 05:11:08;;;;;;;10.43;5.22;;;5.70;90.00;;;;;;5081714;28;20020;-84
2021/04/24 05:13:34;;;;;;;9.18;5.43;;;5.70;90.00;;;;;;5088527;28;20057;-85
2021/04/24 05:16:00;;;;;;;9.10;5.63;;;5.70;90.00;;;;;;5085901;28;20032;-85
2021/04/24 05:18:26;;;;;;;10.10;6.05;;;5.80;90.00;;;;;;5079747;28;20460;-85
2021/04/24 05:20:51;;;;;;;9.18;5.30;;;5.80;90.00;;;;;;5041025;28;20039;-85
2021/04/24 05:23:17;;;;;;;10.13;5.65;;;5.80;90.00;;;;;;5069491;28;20021;-85
2021/04/24 05:25:43;;;;;;;11.80;5.50;;;5.90;90.00;;;;;;5047197;28;20496;-85
2021/04/24 05:28:08;;;;;;;9.95;6.35;;;5.90;90.00;;;;;;5064022;28;20025;-85
2021/04/24 05:30:34;;;;;;;8.80;5.60;;;5.90;90.00;;;;;;5067358;28;20387;-85
2021/04/24 05:33:00;;;;;;;8.85;5.57;;;6.00;90.00;;;;;;5053719;28;20531;-85
2021/04/24 05:35:25;;;;;;;11.60;5.38;;;6.00;90.00;;;;;;5054906;28;20365;-84
2021/04/24 05:37:52;;;;;;;11.00;5.57;;;6.00;90.00;;;;;;5037896;28;20021;-85
2021/04/24 05:40:18;;;;;;;11.32;5.75;;;6.00;90.00;;;;;;5037355;28;20435;-85
2021/04/24 05:42:43;;;;;;;9.93;5.43;;;6.10;90.10;;;;;;5036559;28;20028;-84
2021/04/24 05:45:10;;;;;;;8.20;4.97;;;6.10;90.00;;;;;;5055054;28;20021;-85
2021/04/24 05:47:43;;;;;;;8.25;5.03;;;6.10;90.00;;;;;;5055198;28;20378;-85
2021/04/24 05:50:10;;;;;;;9.80;6.05;;;6.20;90.10;;;;;;5037295;28;20496;-84
2021/04/24 05:52:37;;;;;;;9.90;5.50;;;6.20;90.20;;;;;;5055101;28;20032;-85
2021/04/24 05:55:04;;;;;;;8.82;5.93;;;6.30;90.20;;;;;;5037307;28;20495;-85
2021/04/24 05:57:33;;;;;;;7.53;5.32;;;6.30;90.20;;;;;;5055132;28;20030;-85
2021/04/24 05:59:59;;;;;;;8.90;4.95;;;6.40;90.30;;;;;;5037354;28;20017;-84
2021/04/24 06:02:24;;;;;;;10.93;5.07;;;6.40;90.30;;;;;;5037462;28;20099;-85
2021/04/24 06:04:50;;;;;;;9.68;5.60;;;6.50;90.30;;;;;;5037158;28;20021;-85
2021/04/24 06:07:15;;;;;;;7.32;4.70;;;6.50;90.30;;;;;;5036995;28;20033;-85
2021/04/24 06:09:41;;;;;;;9.13;5.15;;;6.60;90.30;;;;;;5037212;28;20029;-85
2021/04/24 06:12:07;;;;;;;10.55;5.60;;;6.70;90.30;;;;;;5036847;28;20028;-84
2021/04/24 06:14:33;;;;;;;9.05;5.30;;;6.70;90.30;;;;;;5034506;28;20563;-84
2021/04/24 06:16:59;;;;;;;9.55;5.72;;;6.80;90.40;;;;;;5036815;28;20060;-84
2021/04/24 06:19:26;;;;;;;10.07;5.80;;;6.80;90.40;;;;;;5050014;28;20047;-85
2021/04/24 06:21:52;;;;;;;8.63;5.13;;;6.80;90.40;;;;;;5072997;28;20036;-84
2021/04/24 06:24:18;;;;;;;11.43;6.90;;;6.90;90.40;;;;;;5073573;28;20024;-84
2021/04/24 06:26:43;;;;;;;16.13;7.30;;;6.90;90.60;;;;;;5074425;28;20078;-83
2021/04/24 06:29:09;;;;;;;11.27;6.57;;;6.90;90.70;;;;;;5073174;28;20028;-84
2021/04/24 06:31:34;;;;;;;10.32;6.50;;;6.90;90.60;;;;;;5064970;28;20028;-84
2021/04/24 06:34:00;;;;;;;8.82;5.82;;;6.90;90.70;;;;;;5062508;28;20013;-84
2021/04/24 06:36:26;;;;;;;10.30;5.78;;;7.00;90.60;;;;;;5054301;28;20028;-83
2021/04/24 06:38:52;;;;;;;9.70;6.10;;;7.00;90.60;;;;;;5053142;28;20075;-84
2021/04/24 06:41:17;;;;;;;9.48;6.07;;;7.00;90.70;;;;;;5053061;28;20049;-84
2021/04/24 06:43:43;;;;;;;14.13;7.88;;;7.10;90.70;;;;;;5052906;28;20469;-84
2021/04/24 06:46:08;;;;;;;11.10;6.70;;;7.10;90.90;;;;;;5058341;28;20032;-84
2021/04/24 06:48:34;;;;;;;13.57;6.40;;;7.10;91.00;;;;;;5063072;28;20025;-84
2021/04/24 06:51:00;;;;;;;19.23;9.98;;;7.20;91.00;;;;;;5064173;28;20400;-84
2021/04/24 06:53:26;;;;;;;13.98;8.65;;;7.20;92.10;;;;;;5052735;28;20059;-84
2021/04/24 06:55:54;;;;;;;14.57;7.63;;;7.30;92.30;;;;;;5054056;28;20477;-83
2021/04/24 06:58:20;;;;;;;15.40;9.32;;;7.30;92.20;;;;;;5052635;28;20116;-83
2021/04/24 07:00:45;;;;;;;16.95;8.98;;;7.40;92.80;;;;;;5053874;28;20048;-83
2021/04/24 07:03:11;;;;;;;18.45;8.80;;;7.60;93.10;;;;;;5052705;28;20025;-83
2021/04/24 07:05:36;;;;;;;19.25;10.18;;;7.60;92.90;;;;;;5055119;28;20075;-83
2021/04/24 07:08:03;;;;;;;17.17;9.10;;;7.70;93.20;;;;;;5061990;28;20154;-83
2021/04/24 07:10:28;;;;;;;15.75;7.75;;;7.80;93.70;;;;;;5063329;28;20025;-83
2021/04/24 07:12:54;;;;;;;14.35;7.60;;;7.80;93.40;;;;;;5062205;28;20480;-82
2021/04/24 07:15:19;;;;;;;11.23;6.50;;;7.80;93.20;;;;;;5059768;28;20108;-83
2021/04/24 07:17:46;;;;;;;9.80;6.70;;;7.90;93.10;;;;;;5050646;28;20029;-83
2021/04/24 07:20:13;;;;;;;11.18;7.00;;;8.00;93.10;;;;;;5051484;28;20045;-83
2021/04/24 07:22:39;;;;;;;15.85;8.07;;;8.10;93.00;;;;;;5052198;28;20416;-82
2021/04/24 07:25:05;;;;;;;21.10;8.82;;;8.20;93.40;;;;;;5054154;28;20025;-83
2021/04/24 07:27:31;;;;;;;12.52;6.78;;;8.30;93.30;;;;;;5052153;28;20120;-83
2021/04/24 07:29:57;;;;;;;12.18;7.35;;;8.40;93.00;;;;;;5053230;28;20052;-83
2021/04/24 07:32:22;;;;;;;12.82;6.78;;;8.40;93.20;;;;;;5053193;28;20037;-83
2021/04/24 07:34:48;;;;;;;10.02;6.63;;;8.60;93.10;;;;;;5053238;28;20123;-83
2021/04/24 07:37:14;;;;;;;13.52;7.03;;;8.70;92.90;;;;;;5052099;28;20425;-82
2021/04/24 07:39:40;;;;;;;11.65;7.15;;;8.80;92.50;;;;;;5053185;28;20072;-83
2021/04/24 07:42:06;;;;;;;15.00;7.68;;;8.80;92.70;;;;;;5052907;28;20465;-82
2021/04/24 07:44:32;;;;;;;13.15;6.43;;;8.90;92.30;;;;;;5051750;28;20029;-83
2021/04/24 07:46:58;;;;;;;12.02;6.18;;;8.90;92.10;;;;;;5053107;28;20029;-81
2021/04/24 07:49:24;;;;;;;9.90;5.95;;;9.00;91.80;;;;;;5066814;28;20070;-83
2021/04/24 07:51:49;;;;;;;10.13;5.65;;;9.10;91.40;;;;;;5061000;28;20020;-83
2021/04/24 07:54:16;;;;;;;11.73;6.78;;;9.20;91.20;;;;;;5060191;28;20056;-83
2021/04/24 07:56:43;;;;;;;13.98;6.38;;;9.30;91.10;;;;;;5061393;28;20024;-83
2021/04/24 07:59:09;;;;;;;14.18;7.28;;;9.60;91.10;;;;;;5061268;28;20021;-84
2021/04/24 08:01:37;;;;;;;11.38;5.88;;;9.80;90.10;;;;;;5061876;28;20032;-84
2021/04/24 08:04:04;;;;;;;8.20;3.85;;;9.90;89.80;;;;;;5061250;28;20163;-84
2021/04/24 08:06:30;;;;;;;7.90;2.92;;;10.00;86.70;;;;;;5061102;28;20070;-83
2021/04/24 08:08:55;;;;;;;4.75;2.90;;;10.00;83.60;;;;;;5060060;28;20494;-82
2021/04/24 08:11:21;;;;;;;4.93;2.47;;;10.10;81.40;;;;;;5059911;28;20017;-84
2021/04/24 08:13:46;;;;;;;5.32;2.72;;;10.00;78.70;;;;;;5061437;28;20103;-83
2021/04/24 08:16:12;;;;;;;6.05;1.67;;;10.10;74.90;;;;;;5063027;28;20056;-84
2021/04/24 08:18:38;;;;;;;5.10;2.22;;;10.10;75.40;;;;;;5060452;28;20017;-83
2021/04/24 08:21:04;;;;;;;3.10;1.65;;;10.10;75.10;;;;;;5063086;28;20399;-83
2021/04/24 08:23:30;;;;;;;7.57;2.00;;;10.10;74.60;;;;;;5060949;28;20056;-84
2021/04/24 08:25:55;;;;;;;5.53;2.30;;;10.20;73.10;;;;;;5060083;28;20380;-84
2021/04/24 08:28:21;;;;;;;3.17;1.27;;;10.30;71.70;;;;;;5061858;28;20021;-84
2021/04/24 08:30:46;;;;;;;2.90;1.67;;;10.30;71.20;;;;;;5060164;28;20025;-85
2021/04/24 08:33:12;;;;;;;3.20;1.60;;;10.30;70.20;;;;;;5060413;28;20013;-83
2021/04/24 08:35:38;;;;;;;6.28;2.92;;;10.40;70.00;;;;;;5060229;28;20048;-84
2021/04/24 08:38:04;;;;;;;3.85;2.25;;;10.40;71.30;;;;;;5053742;28;20477;-83
2021/04/24 08:40:29;;;;;;;5.03;2.40;;;10.50;71.40;;;;;;5052661;28;20017;-84
2021/04/24 08:42:56;;;;;;;5.70;2.30;;;10.60;72.10;;;;;;5051004;28;20120;-83
2021/04/24 08:45:23;;;;;;;2.95;1.88;;;10.60;70.80;;;;;;5051155;28;20112;-84
2021/04/24 08:47:54;;;;;;;5.22;2.17;;;10.70;71.10;;;;;;5063022;28;20073;-85
2021/04/24 08:50:29;;;;;;;4.13;1.70;;;10.90;70.10;;;;;;5070680;28;20013;-84
2021/04/24 08:52:56;;;;;;;3.88;2.00;;;11.00;67.10;;;;;;5070697;28;20021;-84
2021/04/24 08:55:25;;;;;;;4.70;2.05;;;11.10;67.90;;;;;;5072895;28;20096;-84
2021/04/24 08:57:52;;;;;;;5.15;1.90;;;11.30;66.70;;;;;;5089381;28;20058;-84
2021/04/24 09:00:22;;;;;;;3.90;1.75;;;11.30;64.30;;;;;;5092920;28;20073;-85
2021/04/24 09:02:48;;;;;;;3.42;1.70;;;11.40;64.80;;;;;;5090377;28;20081;-83
2021/04/24 09:05:17;;;;;;;4.25;2.03;;;11.50;64.20;;;;;;5091461;28;20659;-83
2021/04/24 09:07:43;;;;;;;5.82;2.20;;;11.60;64.00;;;;;;5094003;28;20028;-84
2021/04/24 09:10:17;;;;;;;3.25;1.77;;;11.70;63.40;;;;;;5087710;28;20020;-83
2021/04/24 09:12:47;;;;;;;3.22;1.73;;;11.90;64.10;;;;;;5075352;28;20484;-83
2021/04/24 09:15:15;;;;;;;3.63;2.13;;;12.00;64.50;;;;;;5070173;28;20035;-84
2021/04/24 09:17:47;;;;;;;3.15;2.00;;;12.10;62.20;;;;;;5057366;28;20029;-84
2021/04/24 09:20:13;;;;;;;4.95;2.05;;;12.40;62.90;;;;;;5072042;28;20127;-85
2021/04/24 09:22:39;;;;;;;2.78;1.73;;;12.50;63.50;;;;;;5075262;28;20025;-84
2021/04/24 09:25:05;;;;;;;5.55;2.10;;;12.70;60.70;;;;;;5074060;28;20035;-84
2021/04/24 09:27:48;;;;;;;3.50;2.20;;;12.80;60.00;;;;;;5074035;28;20476;-84
2021/04/24 09:30:23;;;;;;;5.32;2.25;;;13.00;59.80;;;;;;5083760;28;20056;-83
2021/04/24 09:32:49;;;;;;;4.53;2.20;;;13.10;59.40;;;;;;5082389;28;20028;-84
2021/04/24 09:35:19;;;;;;;4.38;2.00;;;13.30;59.70;;;;;;5076983;28;20013;-84
2021/04/24 09:38:00;;;;;;;5.63;2.17;;;13.40;58.30;;;;;;5083509;28;20433;-83
2021/04/24 09:40:26;;;;;;;3.85;1.70;;;13.60;57.60;;;;;;5092696;28;20020;-83
2021/04/24 09:43:01;;;;;;;4.22;1.58;;;13.60;58.50;;;;;;5085924;28;20017;-83
2021/04/24 09:45:33;;;;;;;2.75;1.45;;;13.80;60.00;;;;;;5090675;28;20379;-84
2021/04/24 09:47:59;;;;;;;3.40;1.55;;;14.70;61.30;;;;;;5083895;28;20030;-83
2021/04/24 09:50:35;;;;;;;3.05;1.65;;;16.60;55.20;;;;;;5091231;28;20027;-84
2021/04/24 09:53:22;;;;;;;4.72;2.40;;;18.50;51.00;;;;;;5086918;28;20550;-85
2021/04/24 09:55:50;;;;;;;3.28;1.55;;;20.00;43.70;;;;;;5088765;28;20028;-84
2021/04/24 09:58:32;;;;;;;2.72;1.67;;;20.80;42.80;;;;;;5089526;28;20046;-84
2021/04/24 10:01:17;;;;;;;4.85;1.88;;;21.40;41.20;;;;;;5093039;28;20107;-84
2021/04/24 10:03:43;;;;;;;2.90;1.27;;;21.80;38.90;;;;;;5092690;28;20024;-84
2021/04/24 10:06:22;;;;;;;3.72;1.55;;;22.50;40.20;;;;;;5076172;28;21516;-84
2021/04/24 10:08:48;;;;;;;3.42;1.20;;;23.80;38.70;;;;;;5082419;28;20028;-85
2021/04/24 10:11:35;;;;;;;2.35;1.23;;;24.70;37.70;;;;;;5089338;28;20360;-83
2021/04/24 10:14:01;;;;;;;4.10;1.48;;;25.50;35.30;;;;;;5090692;28;20028;-84
2021/04/24 10:16:33;;;;;;;3.55;1.92;;;25.50;34.00;;;;;;5089628;28;20016;-84
2021/04/24 10:19:00;;;;;;;3.25;1.83;;;25.90;34.10;;;;;;5081282;28;20476;-84
2021/04/24 10:21:27;;;;;;;3.22;1.60;;;26.20;32.10;;;;;;5053814;28;20017;-83
2021/04/24 10:23:53;;;;;;;2.75;1.80;;;25.80;31.50;;;;;;5051929;28;20025;-84
2021/04/24 10:26:18;;;;;;;2.92;1.55;;;25.30;32.70;;;;;;5063190;28;20495;-84
2021/04/24 10:28:45;;;;;;;2.72;1.50;;;25.00;33.70;;;;;;5044152;28;20115;-84
2021/04/24 10:31:11;;;;;;;3.40;1.83;;;24.60;33.20;;;;;;5028645;28;20030;-84
2021/04/24 10:33:39;;;;;;;3.92;1.55;;;24.40;32.30;;;;;;5052689;28;20096;-83
2021/04/24 10:36:05;;;;;;;3.65;2.10;;;24.30;33.70;;;;;;5034283;28;20071;-84
2021/04/24 10:38:32;;;;;;;2.92;1.40;;;24.10;32.30;;;;;;5054008;28;20358;-84
2021/04/24 10:40:58;;;;;;;3.22;1.70;;;24.30;33.50;;;;;;5030442;28;20028;-83
2021/04/24 10:43:24;;;;;;;3.42;2.22;;;24.00;32.80;;;;;;5027184;28;20022;-84
2021/04/24 10:45:49;;;;;;;2.22;1.50;;;23.80;32.90;;;;;;5033956;28;20033;-84
2021/04/24 10:48:23;;;;;;;2.60;1.67;;;24.40;34.00;;;;;;5047208;28;20021;-83
2021/04/24 10:50:49;;;;;;;4.18;2.58;;;25.10;32.30;;;;;;5036677;28;20029;-85
2021/04/24 10:53:28;;;;;;;2.70;1.95;;;25.60;31.40;;;;;;5063509;28;20050;-85
2021/04/24 10:55:55;;;;;;;3.33;2.10;;;26.20;30.80;;;;;;5046489;28;20454;-82
2021/04/24 10:58:23;;;;;;;2.05;1.52;;;27.20;29.70;;;;;;5054768;28;20024;-84
2021/04/24 11:01:02;;;;;;;2.15;1.77;;;28.20;29.40;;;;;;5040802;28;20048;-83
2021/04/24 11:03:41;;;;;;;2.67;1.50;;;28.60;28.80;;;;;;5037341;28;20024;-85
2021/04/24 11:06:12;;;;;;;3.67;1.60;;;28.60;29.30;;;;;;5049771;28;20031;-84
2021/04/24 11:08:39;;;;;;;3.35;2.20;;;28.60;29.40;;;;;;5035699;28;20034;-86
2021/04/24 11:11:16;;;;;;;2.15;1.45;;;28.80;28.30;;;;;;5042188;28;20025;-85
2021/04/24 11:13:49;;;;;;;2.88;1.75;;;29.00;28.50;;;;;;5035259;28;20792;-85
2021/04/24 11:16:17;;;;;;;3.58;2.05;;;28.80;28.60;;;;;;5031807;28;20017;-86
2021/04/24 11:18:45;;;;;;;2.17;1.55;;;29.40;28.40;;;;;;5037934;28;20025;-84
2021/04/24 11:21:17;;;;;;;2.53;1.80;;;30.00;28.60;;;;;;5033970;28;20548;-88
2021/04/24 11:23:51;;;;;;;4.05;2.15;;;29.60;28.10;;;;;;5019925;28;20064;-86
2021/04/24 11:26:42;;;;;;;2.25;1.58;;;28.80;27.10;;;;;;5020815;28;20024;-84
2021/04/24 11:29:19;;;;;;;3.75;2.10;;;28.90;28.20;;;;;;5038201;28;20033;-84
2021/04/24 11:32:18;;;;;;;4.35;2.05;;;29.10;27.80;;;;;;5047976;28;20499;-86
2021/04/24 11:34:46;;;;;;;3.85;2.22;;;29.30;27.00;;;;;;5017441;28;20136;-86
2021/04/24 11:37:15;;;;;;;2.10;1.30;;;29.70;26.50;;;;;;5048406;28;20389;-86
2021/04/24 11:40:19;;;;;;;2.90;1.52;;;29.80;26.90;;;;;;5033496;28;20067;-85
2021/04/24 11:42:48;;;;;;;1.63;1.17;;;29.60;26.50;;;;;;5042352;28;20060;-84
2021/04/24 11:45:17;;;;;;;1.08;0.80;;;29.50;26.70;;;;;;5048340;28;20028;-84
2021/04/24 11:47:49;;;;;;;2.97;1.40;;;30.40;27.00;;;;;;5049624;28;20053;-84
2021/04/24 11:50:16;;;;;;;3.13;1.80;;;30.70;25.30;;;;;;5052256;28;20392;-85
2021/04/24 11:52:55;;;;;;;1.60;1.45;;;30.30;25.00;;;;;;5048260;28;20050;-86
2021/04/24 11:55:21;;;;;;;3.33;1.80;;;30.00;26.10;;;;;;5033988;28;20104;-86
2021/04/24 11:57:47;;;;;;;1.63;1.45;;;29.70;25.30;;;;;;5034450;28;20369;-84
2021/04/24 12:00:29;;;;;;;2.10;1.20;;;29.30;26.00;;;;;;5033252;28;20024;-85
2021/04/24 12:02:54;;;;;;;2.97;2.05;;;28.70;26.90;;;;;;5049519;28;20130;-84
2021/04/24 12:05:20;;;;;;;3.60;2.00;;;27.80;27.00;;;;;;5011817;28;20111;-82
2021/04/24 12:07:50;;;;;;;2.38;2.03;;;26.90;27.10;;;;;;5043489;28;21195;-85
2021/04/24 12:10:17;;;;;;;2.88;1.90;;;26.80;27.90;;;;;;5044950;28;20020;-85
2021/04/24 12:12:45;;;;;;;3.25;2.00;;;26.70;27.90;;;;;;5030264;28;20057;-84
2021/04/24 12:15:25;;;;;;;3.23;2.40;;;26.30;28.10;;;;;;5041025;28;20028;-84
2021/04/24 12:17:57;;;;;;;4.60;2.15;;;26.40;29.10;;;;;;5042214;28;20020;-82
2021/04/24 12:20:36;;;;;;;2.67;2.00;;;26.30;27.80;;;;;;5054997;28;20719;-83
2021/04/24 12:23:04;;;;;;;3.42;2.20;;;25.50;28.60;;;;;;5080657;28;20024;-82
2021/04/24 12:25:32;;;;;;;5.32;2.28;;;25.00;29.30;;;;;;5080451;28;20092;-82
2021/04/24 12:27:58;;;;;;;2.65;2.45;;;25.10;29.50;;;;;;5089966;28;20027;-81
2021/04/24 12:30:26;;;;;;;3.67;2.55;;;25.10;29.20;;;;;;5092455;28;20265;-84
2021/04/24 12:32:53;;;;;;;3.08;2.30;;;25.00;28.90;;;;;;5082945;28;20031;-83
2021/04/24 12:35:25;;;;;;;4.45;2.67;;;24.70;29.60;;;;;;5093457;28;20020;-83
2021/04/24 12:38:16;;;;;;;4.57;2.50;;;24.60;30.00;;;;;;5082968;28;20028;-81
2021/04/24 12:40:49;;;;;;;4.30;2.53;;;24.60;29.50;;;;;;5085415;28;20028;-83
2021/04/24 12:43:21;;;;;;;3.45;2.40;;;24.30;30.00;;;;;;5091118;28;20036;-83
2021/04/24 12:45:48;;;;;;;3.72;2.17;;;23.80;30.70;;;;;;5089661;28;20012;-81
2021/04/24 12:48:18;;;;;;;3.22;2.00;;;23.50;31.20;;;;;;5088034;28;20039;-82
2021/04/24 12:51:04;;;;;;;4.25;2.88;;;23.30;31.20;;;;;;5091262;28;20028;-82
2021/04/24 12:53:32;;;;;;;2.92;2.42;;;22.80;31.30;;;;;;5091750;28;20020;-81